sensor_id;sensor_type;location;lat;lon;timestamp;pressure;altitude;pressure_sealevel;temperature;humidity
57894;BME280;43710;47.460;19.034;2023-01-26T05:00:56;101094.97;;;6.03;81.11
57894;BME280;43710;47.460;19.034;2023-01-26T05:04:01;101094.97;;;6.03;81.11
57894;BME280;43710;47.460;19.034;2023-01-26T05:07:03;101096.97;;;5.54;84.09
57894;BME280;43710;47.460;19.034;2023-01-26T05:10:07;101100.69;;;5.64;82.76
57894;BME280;43710;47.460;19.034;2023-01-26T05:13:10;101105.06;;;5.47;71.71
57894;BME280;43710;47.460;19.034;2023-01-26T05:16:13;101103.59;;;5.63;93.19
57894;BME280;43710;47.460;19.034;2023-01-26T05:19:17;101100.22;;;5.79;88.40
57894;BME280;43710;47.460;19.034;2023-01-26T05:22:20;101096.16;;;5.65;68.74
57894;BME280;43710;47.460;19.034;2023-01-26T05:25:24;101099.06;;;5.75;81.97
57894;BME280;43710;47.460;19.034;2023-01-26T05:28:26;101099.56;;;6.07;75.40
57894;BME280;43710;47.460;19.034;2023-01-26T05:31:29;101087.53;;;6.17;76.01
57894;BME280;43710;47.460;19.034;2023-01-26T05:34:32;101096.66;;;6.21;72.51
57894;BME280;43710;47.460;19.034;2023-01-26T05:37:34;101096.44;;;5.99;79.46
57894;BME280;43710;47.460;19.034;2023-01-26T05:40:37;101101.22;;;5.97;75.82
57894;BME280;43710;47.460;19.034;2023-01-26T05:43:39;101100.63;;;6.06;80.98
57894;BME280;43710;47.460;19.034;2023-01-26T05:46:42;101102.69;;;6.28;82.38
57894;BME280;43710;47.460;19.034;2023-01-26T05:49:45;101113.91;;;6.18;83.40
57894;BME280;43710;47.460;19.034;2023-01-26T05:52:48;101105.38;;;6.04;69.47
57894;BME280;43710;47.460;19.034;2023-01-26T05:55:50;101106.97;;;6.17;93.54
57894;BME280;43710;47.460;19.034;2023-01-26T05:58:54;101105.81;;;6.01;82.53
57894;BME280;43710;47.460;19.034;2023-01-26T06:01:58;101116.59;;;6.06;89.96
57894;BME280;43710;47.460;19.034;2023-01-26T06:05:01;101111.00;;;5.84;70.54
57894;BME280;43710;47.460;19.034;2023-01-26T06:08:03;101118.97;;;5.84;82.29
57894;BME280;43710;47.460;19.034;2023-01-26T06:11:06;101110.22;;;5.96;74.69
57894;BME280;43710;47.460;19.034;2023-01-26T06:14:09;101104.44;;;5.99;75.10
57894;BME280;43710;47.460;19.034;2023-01-26T06:17:13;101102.78;;;5.74;77.79
57894;BME280;43710;47.460;19.034;2023-01-26T06:20:15;101108.59;;;5.83;77.69
57894;BME280;43710;47.460;19.034;2023-01-26T06:23:18;101101.75;;;5.87;77.24
57894;BME280;43710;47.460;19.034;2023-01-26T06:26:21;101108.37;;;5.96;81.78
57894;BME280;43710;47.460;19.034;2023-01-26T06:29:26;101107.50;;;5.72;80.74
57894;BME280;43710;47.460;19.034;2023-01-26T06:32:28;101105.78;;;5.78;79.41
57894;BME280;43710;47.460;19.034;2023-01-26T06:35:32;101109.00;;;5.68;71.53
57894;BME280;43710;47.460;19.034;2023-01-26T06:38:38;101108.41;;;5.66;67.12
57894;BME280;43710;47.460;19.034;2023-01-26T06:41:41;101103.22;;;5.59;67.11
57894;BME280;43710;47.460;19.034;2023-01-26T06:44:44;101101.00;;;5.45;66.74
57894;BME280;43710;47.460;19.034;2023-01-26T06:47:48;101099.34;;;5.32;68.29
57894;BME280;43710;47.460;19.034;2023-01-26T06:50:52;101095.84;;;5.19;69.09
57894;BME280;43710;47.460;19.034;2023-01-26T06:53:56;101097.94;;;5.17;67.44
57894;BME280;43710;47.460;19.034;2023-01-26T06:56:59;101092.50;;;5.24;69.04
57894;BME280;43710;47.460;19.034;2023-01-26T07:00:02;101093.94;;;5.38;73.87
57894;BME280;43710;47.460;19.034;2023-01-26T07:03:05;101089.78;;;5.42;88.13
57894;BME280;43710;47.460;19.034;2023-01-26T07:06:08;101098.00;;;5.53;77.32
57894;BME280;43710;47.460;19.034;2023-01-26T07:09:13;101092.31;;;5.37;67.11
57894;BME280;43710;47.460;19.034;2023-01-26T07:12:16;101091.56;;;5.84;85.18
57894;BME280;43710;47.460;19.034;2023-01-26T07:15:18;101093.31;;;6.02;72.11
57894;BME280;43710;47.460;19.034;2023-01-26T07:18:21;101082.22;;;5.93;64.90
57894;BME280;43710;47.460;19.034;2023-01-26T07:21:23;101077.34;;;5.67;72.15
57894;BME280;43710;47.460;19.034;2023-01-26T07:24:26;101083.22;;;5.69;75.81
57894;BME280;43710;47.460;19.034;2023-01-26T07:27:29;101081.37;;;5.57;69.12
57894;BME280;43710;47.460;19.034;2023-01-26T07:30:31;101078.31;;;5.42;69.56
57894;BME280;43710;47.460;19.034;2023-01-26T07:33:33;101073.81;;;5.42;76.52
57894;BME280;43710;47.460;19.034;2023-01-26T07:36:36;101081.81;;;5.54;83.38
57894;BME280;43710;47.460;19.034;2023-01-26T07:39:39;101069.34;;;5.67;81.12
57894;BME280;43710;47.460;19.034;2023-01-26T07:42:41;101064.72;;;5.62;68.95
57894;BME280;43710;47.460;19.034;2023-01-26T07:45:52;101064.37;;;5.47;68.70
57894;BME280;43710;47.460;19.034;2023-01-26T07:48:55;101075.59;;;5.84;88.98
57894;BME280;43710;47.460;19.034;2023-01-26T07:51:59;101073.78;;;5.96;71.67
57894;BME280;43710;47.460;19.034;2023-01-26T07:55:02;101069.47;;;5.83;65.97
57894;BME280;43710;47.460;19.034;2023-01-26T07:58:05;101072.34;;;5.58;71.53
57894;BME280;43710;47.460;19.034;2023-01-26T08:01:12;101076.81;;;5.46;72.64
57894;BME280;43710;47.460;19.034;2023-01-26T08:04:15;101070.53;;;5.94;85.77
57894;BME280;43710;47.460;19.034;2023-01-26T08:07:17;101069.47;;;5.72;76.96
57894;BME280;43710;47.460;19.034;2023-01-26T08:10:20;101067.94;;;5.76;76.82
57894;BME280;43710;47.460;19.034;2023-01-26T08:13:22;101071.06;;;5.73;69.18
57894;BME280;43710;47.460;19.034;2023-01-26T08:16:36;101077.56;;;5.77;70.25
57894;BME280;43710;47.460;19.034;2023-01-26T08:19:38;101071.44;;;6.11;85.66
57894;BME280;43710;47.460;19.034;2023-01-26T08:22:41;101063.81;;;6.03;77.10
57894;BME280;43710;47.460;19.034;2023-01-26T08:25:43;101068.44;;;6.20;70.80
57894;BME280;43710;47.460;19.034;2023-01-26T08:28:46;101063.19;;;6.37;83.92
57894;BME280;43710;47.460;19.034;2023-01-26T08:31:48;101063.00;;;6.15;85.80
57894;BME280;43710;47.460;19.034;2023-01-26T08:34:51;101062.31;;;5.96;65.61
57894;BME280;43710;47.460;19.034;2023-01-26T08:37:53;101071.09;;;6.08;83.16
57894;BME280;43710;47.460;19.034;2023-01-26T08:40:56;101071.94;;;5.97;80.80
57894;BME280;43710;47.460;19.034;2023-01-26T08:43:58;101063.53;;;6.28;76.93
57894;BME280;43710;47.460;19.034;2023-01-26T08:47:00;101064.91;;;6.43;87.10
57894;BME280;43710;47.460;19.034;2023-01-26T08:50:03;101063.31;;;6.30;74.16
57894;BME280;43710;47.460;19.034;2023-01-26T08:53:06;101065.19;;;6.18;90.64
57894;BME280;43710;47.460;19.034;2023-01-26T08:56:10;101067.97;;;6.23;73.38
57894;BME280;43710;47.460;19.034;2023-01-26T08:59:13;101076.16;;;5.86;66.21
57894;BME280;43710;47.460;19.034;2023-01-26T09:02:15;101062.66;;;5.99;69.68
57894;BME280;43710;47.460;19.034;2023-01-26T09:05:18;101064.25;;;6.12;85.51
57894;BME280;43710;47.460;19.034;2023-01-26T09:08:20;101066.34;;;6.22;73.87
57894;BME280;43710;47.460;19.034;2023-01-26T09:11:22;101062.84;;;6.33;89.50
57894;BME280;43710;47.460;19.034;2023-01-26T09:14:24;101067.97;;;6.23;72.68
57894;BME280;43710;47.460;19.034;2023-01-26T09:17:29;101071.69;;;5.98;65.15
57894;BME280;43710;47.460;19.034;2023-01-26T09:20:31;101060.19;;;5.86;79.13
57894;BME280;43710;47.460;19.034;2023-01-26T09:23:34;101064.72;;;5.85;66.43
57894;BME280;43710;47.460;19.034;2023-01-26T09:26:36;101058.50;;;6.03;77.47
57894;BME280;43710;47.460;19.034;2023-01-26T09:29:39;101061.81;;;6.34;77.94
57894;BME280;43710;47.460;19.034;2023-01-26T09:32:41;101058.47;;;6.15;68.66
57894;BME280;43710;47.460;19.034;2023-01-26T09:35:43;101068.19;;;5.86;68.62
57894;BME280;43710;47.460;19.034;2023-01-26T09:38:45;101057.78;;;5.84;77.59
57894;BME280;43710;47.460;19.034;2023-01-26T09:42:09;101060.56;;;6.13;69.97
57894;BME280;43710;47.460;19.034;2023-01-26T09:45:24;101049.69;;;6.26;83.69
57894;BME280;43710;47.460;19.034;2023-01-26T09:48:36;101053.59;;;6.24;81.24
57894;BME280;43710;47.460;19.034;2023-01-26T09:51:49;101047.34;;;6.30;89.31
57894;BME280;43710;47.460;19.034;2023-01-26T09:54:57;101035.19;;;6.22;77.00
57894;BME280;43710;47.460;19.034;2023-01-26T09:58:05;101033.09;;;6.36;78.98
57894;BME280;43710;47.460;19.034;2023-01-26T10:01:18;101026.81;;;6.42;76.85
57894;BME280;43710;47.460;19.034;2023-01-26T10:04:35;101021.69;;;6.81;90.89
57894;BME280;43710;47.460;19.034;2023-01-26T10:07:41;101019.97;;;6.46;70.83
57894;BME280;43710;47.460;19.034;2023-01-26T10:10:49;101013.88;;;6.22;74.04
57894;BME280;43710;47.460;19.034;2023-01-26T10:14:08;101010.13;;;6.06;74.67
57894;BME280;43710;47.460;19.034;2023-01-26T10:17:31;101007.75;;;6.33;69.81
57894;BME280;43710;47.460;19.034;2023-01-26T10:20:40;101002.63;;;6.32;64.16
57894;BME280;43710;47.460;19.034;2023-01-26T10:23:47;100990.50;;;6.24;62.01
57894;BME280;43710;47.460;19.034;2023-01-26T10:26:52;100993.63;;;6.33;87.02
57894;BME280;43710;47.460;19.034;2023-01-26T10:29:56;100995.69;;;6.43;64.87
57894;BME280;43710;47.460;19.034;2023-01-26T10:32:59;100987.94;;;6.58;86.53
57894;BME280;43710;47.460;19.034;2023-01-26T10:36:05;100977.50;;;6.40;71.15
57894;BME280;43710;47.460;19.034;2023-01-26T10:39:09;100976.34;;;6.35;89.25
57894;BME280;43710;47.460;19.034;2023-01-26T10:42:17;100974.31;;;6.26;82.65
57894;BME280;43710;47.460;19.034;2023-01-26T10:45:30;100972.78;;;6.30;85.60
57894;BME280;43710;47.460;19.034;2023-01-26T10:48:33;100976.34;;;6.35;74.69
57894;BME280;43710;47.460;19.034;2023-01-26T10:51:38;100971.47;;;6.04;66.51
57894;BME280;43710;47.460;19.034;2023-01-26T10:54:42;100970.59;;;6.55;100.00
57894;BME280;43710;47.460;19.034;2023-01-26T10:57:45;100963.78;;;6.48;74.83
57894;BME280;43710;47.460;19.034;2023-01-26T11:00:54;100964.03;;;6.18;65.34
57894;BME280;43710;47.460;19.034;2023-01-26T11:04:10;100959.56;;;6.06;79.81
57894;BME280;43710;47.460;19.034;2023-01-26T11:07:26;100958.81;;;6.23;73.76
57894;BME280;43710;47.460;19.034;2023-01-26T11:10:37;100944.53;;;6.29;68.23
57894;BME280;43710;47.460;19.034;2023-01-26T11:13:40;100944.28;;;6.02;76.92
57894;BME280;43710;47.460;19.034;2023-01-26T11:17:08;100949.00;;;6.11;81.83
57894;BME280;43710;47.460;19.034;2023-01-26T11:24:14;100937.41;;;6.18;80.36
57894;BME280;43710;47.460;19.034;2023-01-26T11:27:31;100925.78;;;5.95;63.71
57894;BME280;43710;47.460;19.034;2023-01-26T11:34:37;100926.16;;;6.16;66.95
57894;BME280;43710;47.460;19.034;2023-01-26T11:41:43;100923.62;;;6.21;69.35
57894;BME280;43710;47.460;19.034;2023-01-26T11:55:22;100903.16;;;6.38;98.02
57894;BME280;43710;47.460;19.034;2023-01-26T11:58:47;100895.72;;;6.23;68.48
57894;BME280;43710;47.460;19.034;2023-01-26T12:02:00;100885.69;;;6.14;75.21
57894;BME280;43710;47.460;19.034;2023-01-26T12:05:15;100877.78;;;6.19;92.59
57894;BME280;43710;47.460;19.034;2023-01-26T12:08:24;100875.00;;;6.42;99.66
57894;BME280;43710;47.460;19.034;2023-01-26T12:11:34;100865.03;;;6.49;70.79
57894;BME280;43710;47.460;19.034;2023-01-26T12:18:18;100864.28;;;6.08;68.27
57894;BME280;43710;47.460;19.034;2023-01-26T12:21:22;100860.16;;;6.01;66.23
57894;BME280;43710;47.460;19.034;2023-01-26T12:24:34;100857.03;;;6.04;89.40
57894;BME280;43710;47.460;19.034;2023-01-26T12:28:10;100854.69;;;6.07;66.91
57894;BME280;43710;47.460;19.034;2023-01-26T12:31:33;100860.63;;;6.26;88.67
57894;BME280;43710;47.460;19.034;2023-01-26T12:34:38;100851.38;;;6.00;71.84
57894;BME280;43710;47.460;19.034;2023-01-26T12:38:02;100847.03;;;6.11;78.91
57894;BME280;43710;47.460;19.034;2023-01-26T12:41:41;100850.22;;;6.25;84.30
57894;BME280;43710;47.460;19.034;2023-01-26T12:44:56;100847.63;;;6.13;68.56
57894;BME280;43710;47.460;19.034;2023-01-26T12:48:26;100837.28;;;6.17;79.41
57894;BME280;43710;47.460;19.034;2023-01-26T12:51:41;100834.03;;;5.98;93.49
57894;BME280;43710;47.460;19.034;2023-01-26T12:58:01;100838.31;;;5.87;72.22
57894;BME280;43710;47.460;19.034;2023-01-26T13:01:10;100828.16;;;5.84;71.71
57894;BME280;43710;47.460;19.034;2023-01-26T13:04:14;100833.91;;;5.93;86.81
57894;BME280;43710;47.460;19.034;2023-01-26T13:07:38;100826.87;;;6.32;96.42
57894;BME280;43710;47.460;19.034;2023-01-26T13:10:50;100829.97;;;6.24;75.20
57894;BME280;43710;47.460;19.034;2023-01-26T13:13:54;100827.28;;;6.07;76.22
57894;BME280;43710;47.460;19.034;2023-01-26T13:23:44;100814.44;;;6.04;68.30
57894;BME280;43710;47.460;19.034;2023-01-26T13:29:52;100818.53;;;5.95;67.90
57894;BME280;43710;47.460;19.034;2023-01-26T13:36:18;100813.88;;;6.02;74.02
57894;BME280;43710;47.460;19.034;2023-01-26T13:39:33;100819.19;;;6.02;72.43
57894;BME280;43710;47.460;19.034;2023-01-26T13:42:54;100819.41;;;5.72;65.78
57894;BME280;43710;47.460;19.034;2023-01-26T13:49:42;100817.44;;;6.75;100.00
57894;BME280;43710;47.460;19.034;2023-01-26T13:52:44;100819.41;;;6.46;71.46
57894;BME280;43710;47.460;19.034;2023-01-26T13:55:50;100821.41;;;6.89;100.00
57894;BME280;43710;47.460;19.034;2023-01-26T13:59:04;100822.72;;;6.53;82.90
57894;BME280;43710;47.460;19.034;2023-01-26T14:02:20;100813.19;;;6.74;90.47
57894;BME280;43710;47.460;19.034;2023-01-26T14:05:25;100807.22;;;6.33;89.25
57894;BME280;43710;47.460;19.034;2023-01-26T14:08:29;100803.25;;;6.19;72.38
57894;BME280;43710;47.460;19.034;2023-01-26T14:11:32;100815.97;;;6.00;73.52
57894;BME280;43710;47.460;19.034;2023-01-26T14:14:35;100818.66;;;5.88;81.22
57894;BME280;43710;47.460;19.034;2023-01-26T14:17:51;100811.00;;;5.92;74.81
57894;BME280;43710;47.460;19.034;2023-01-26T14:21:05;100816.19;;;5.70;76.94
57894;BME280;43710;47.460;19.034;2023-01-26T14:24:08;100814.91;;;6.01;89.86
57894;BME280;43710;47.460;19.034;2023-01-26T14:27:38;100813.59;;;5.75;80.88
57894;BME280;43710;47.460;19.034;2023-01-26T14:30:41;100817.41;;;5.79;87.42
57894;BME280;43710;47.460;19.034;2023-01-26T14:33:43;100817.78;;;5.71;78.65
57894;BME280;43710;47.460;19.034;2023-01-26T14:36:46;100825.31;;;5.74;77.29
57894;BME280;43710;47.460;19.034;2023-01-26T14:40:15;100817.47;;;5.67;77.86
57894;BME280;43710;47.460;19.034;2023-01-26T14:43:19;100812.00;;;6.02;86.68
57894;BME280;43710;47.460;19.034;2023-01-26T14:46:30;100812.34;;;5.77;74.54
57894;BME280;43710;47.460;19.034;2023-01-26T14:52:47;100808.81;;;5.88;83.20
57894;BME280;43710;47.460;19.034;2023-01-26T14:55:51;100802.16;;;5.74;73.50
57894;BME280;43710;47.460;19.034;2023-01-26T14:58:56;100800.50;;;5.85;91.68
57894;BME280;43710;47.460;19.034;2023-01-26T15:02:25;100807.88;;;6.23;86.98
57894;BME280;43710;47.460;19.034;2023-01-26T15:05:34;100795.00;;;6.03;74.23
57894;BME280;43710;47.460;19.034;2023-01-26T15:08:38;100800.25;;;6.15;76.72
57894;BME280;43710;47.460;19.034;2023-01-26T15:11:41;100812.22;;;6.29;76.14
57894;BME280;43710;47.460;19.034;2023-01-26T15:15:11;100795.88;;;6.09;80.56
57894;BME280;43710;47.460;19.034;2023-01-26T15:21:20;100800.63;;;5.78;76.67
57894;BME280;43710;47.460;19.034;2023-01-26T15:24:23;100815.75;;;5.61;75.13
57894;BME280;43710;47.460;19.034;2023-01-26T15:27:35;100815.12;;;5.71;82.45
57894;BME280;43710;47.460;19.034;2023-01-26T15:30:37;100810.66;;;5.88;82.91
57894;BME280;43710;47.460;19.034;2023-01-26T15:39:49;100813.03;;;5.73;85.70
57894;BME280;43710;47.460;19.034;2023-01-26T15:43:16;100809.22;;;5.69;84.63
57894;BME280;43710;47.460;19.034;2023-01-26T15:46:19;100807.84;;;5.66;73.46
57894;BME280;43710;47.460;19.034;2023-01-26T15:49:21;100808.81;;;5.60;80.87
57894;BME280;43710;47.460;19.034;2023-01-26T15:52:26;100809.97;;;5.52;75.37
57894;BME280;43710;47.460;19.034;2023-01-26T15:55:31;100808.94;;;5.53;76.67
57894;BME280;43710;47.460;19.034;2023-01-26T15:58:34;100810.72;;;5.76;88.25
57894;BME280;43710;47.460;19.034;2023-01-26T16:01:37;100810.44;;;5.89;80.58
57894;BME280;43710;47.460;19.034;2023-01-26T16:04:40;100812.22;;;5.72;75.19
57894;BME280;43710;47.460;19.034;2023-01-26T16:07:42;100819.22;;;5.90;71.85
57894;BME280;43710;47.460;19.034;2023-01-26T16:10:45;100811.34;;;5.67;90.05
57894;BME280;43710;47.460;19.034;2023-01-26T16:13:48;100816.66;;;5.95;79.82
57894;BME280;43710;47.460;19.034;2023-01-26T16:17:16;100816.22;;;5.58;71.22
57894;BME280;43710;47.460;19.034;2023-01-26T16:20:18;100807.56;;;5.79;73.08
57894;BME280;43710;47.460;19.034;2023-01-26T16:23:25;100812.09;;;5.79;77.77
57894;BME280;43710;47.460;19.034;2023-01-26T16:26:28;100804.97;;;5.68;63.20
57894;BME280;43710;47.460;19.034;2023-01-26T16:29:32;100808.62;;;5.78;65.26
57894;BME280;43710;47.460;19.034;2023-01-26T16:32:34;100809.66;;;5.77;77.24
57894;BME280;43710;47.460;19.034;2023-01-26T16:35:37;100812.72;;;5.98;64.01
57894;BME280;43710;47.460;19.034;2023-01-26T16:38:40;100815.66;;;5.96;58.04
57894;BME280;43710;47.460;19.034;2023-01-26T16:41:42;100813.59;;;5.75;60.83
57894;BME280;43710;47.460;19.034;2023-01-26T16:44:45;100815.28;;;5.52;61.34
57894;BME280;43710;47.460;19.034;2023-01-26T16:47:48;100803.19;;;5.45;59.14
57894;BME280;43710;47.460;19.034;2023-01-26T16:50:53;100802.87;;;5.29;59.29
57894;BME280;43710;47.460;19.034;2023-01-26T16:53:55;100798.81;;;5.38;61.40
